Latest Weather Observations for Point Fawcett

IDD60801

Issued at 7:01 pm CST Thursday 23 February 2017 (issued every 30 minutes, with the page automatically refreshed every 10 minutes)

About weather observations | Map of weather stations | Latest weather observations for NT | Other Formats
Station Details ID: 200731 Name: POINT FAWCETT Lat: -11.76 Lon: 130.03 Height: 6.5 m
Data from the previous 72 hours. | See also: Recent months at Point Fawcett
Date/Time
CST
Temp
°C
App
Temp
°C
Dew
Point
°C
Rel
Hum
%
Delta-T
°C
Wind Press
QNH
hPa
Press
MSL
hPa
Rain since
9am
mm
Dir  Spd
km/h
Gust
km/h
Spd
kts
Gust
kts
23/07:00pm 30.0 35.6 27.4 86 1.9 WSW 13 20 7 11 1007.6 - 0.0
23/06:30pm 31.0 36.9 27.3 81 2.7 WSW 11 17 6 9 1007.3 - 0.0
23/06:00pm 31.8 37.3 27.3 77 3.3 SW 13 17 7 9 1007.1 1007.0 0.0
23/05:30pm 32.2 37.6 27.2 75 3.6 SW 13 20 7 11 1006.7 - 0.0
23/05:00pm 32.6 37.8 27.4 74 3.8 SW 15 20 8 11 1006.6 - 0.0
23/04:30pm 32.4 37.7 27.6 76 3.5 SW 15 20 8 11 1006.7 - 0.0
23/04:00pm 32.5 38.3 27.7 76 3.5 WSW 13 19 7 10 1006.9 - 0.0
23/03:30pm 33.1 39.2 28.1 75 3.7 WSW 13 20 7 11 1007.0 - 0.0
23/03:00pm 32.6 37.4 27.4 74 3.8 WSW 17 22 9 12 1007.1 1007.0 0.0
23/02:30pm 32.8 38.1 27.5 73 3.9 WSW 15 20 8 11 1007.2 - 0.0
23/02:00pm 32.5 37.8 27.5 75 3.6 SW 15 20 8 11 1007.7 - 0.0
23/01:30pm 32.5 37.8 27.5 75 3.6 WSW 15 22 8 12 1008.2 - 0.0
23/01:00pm 32.3 38.5 27.7 76 3.4 WSW 11 17 6 9 1008.6 - 0.0
23/12:30pm 32.3 38.3 27.5 76 3.5 WSW 11 19 6 10 1009.2 - 0.0
23/12:00pm 32.3 38.5 28.2 79 3.0 WSW 13 19 7 10 1009.5 1009.4 0.0
23/11:30am 32.2 39.3 28.5 81 2.7 WSW 9 15 5 8 1009.7 - 0.0
23/11:00am 31.5 37.6 27.6 80 2.8 WSW 11 15 6 8 1010.0 - 0.0
23/10:30am 31.6 38.1 28.1 82 2.6 SW 11 19 6 10 1010.2 - 0.0
23/10:00am 31.3 37.2 27.9 82 2.5 SW 13 17 7 9 1010.4 - 0.0
23/09:30am 30.9 36.7 27.7 83 2.3 SW 13 19 7 10 1010.3 - 0.0
23/09:00am 30.6 36.2 28.0 86 1.9 SW 15 20 8 11 1010.3 1010.2 0.0
23/08:30am 29.9 35.6 27.5 87 1.7 WSW 13 17 7 9 1010.2 - 0.0
23/08:00am 29.0 34.6 27.4 91 1.2 WSW 13 19 7 10 1009.9 - 0.0
23/07:30am 28.0 33.5 27.3 96 0.5 SW 13 17 7 9 1009.5 - 0.0
23/07:00am 27.8 33.2 27.1 96 0.5 SW 13 19 7 10 1009.3 - 0.0
23/06:30am 27.6 33.0 27.1 97 0.4 WSW 13 19 7 10 1009.0 - 0.0
23/06:00am 27.1 32.7 26.9 99 0.1 SW 11 17 6 9 1009.0 1008.9 0.0
23/05:30am 27.1 32.5 26.6 97 0.4 WSW 11 17 6 9 1008.8 - 0.0
23/05:00am 27.4 33.2 27.2 99 0.1 WSW 11 17 6 9 1008.8 - 0.0
23/04:30am 27.5 33.2 27.0 97 0.4 WSW 11 15 6 8 1008.6 - 0.0
23/04:00am 27.7 33.5 27.2 97 0.4 WSW 11 17 6 9 1008.5 - 0.0
23/03:30am 27.8 33.5 27.5 98 0.2 WSW 13 17 7 9 1008.4 - 0.0
23/03:00am 27.9 33.8 27.9 100 0.0 WSW 13 19 7 10 1008.4 1008.3 0.0
23/02:30am 27.7 33.5 27.7 100 0.0 SW 13 19 7 10 1008.5 - 0.0
23/02:00am 27.4 33.0 27.4 100 0.0 SW 13 19 7 10 1008.7 - 0.0
23/01:30am 27.7 33.9 27.7 100 0.0 SW 11 15 6 8 1009.2 - 0.0
23/01:00am 27.7 33.1 27.2 97 0.4 SW 13 19 7 10 1009.5 - 0.0
23/12:30am 28.1 33.8 27.6 97 0.4 SW 13 20 7 11 1010.2 - 0.0
23/12:00am 28.1 33.7 27.4 96 0.5 WSW 13 17 7 9 1010.5 1010.4 0.0
 
Date/Time
CST
Temp
°C
App
Temp
°C
Dew
Point
°C
Rel
Hum
%
Delta-T
°C
Wind Press
QNH
hPa
Press
MSL
hPa
Rain since
9am
mm
Dir  Spd
km/h
Gust
km/h
Spd
kts
Gust
kts
22/11:30pm 28.3 33.9 27.4 95 0.6 WSW 13 20 7 11 1010.9 - 0.0
22/11:00pm 28.3 33.7 27.1 93 0.9 WSW 13 19 7 10 1010.9 - 0.0
22/10:30pm 28.4 33.6 26.8 91 1.1 SW 13 20 7 11 1010.6 - 0.0
22/10:00pm 28.5 33.4 26.9 91 1.1 SW 15 20 8 11 1010.5 - 0.0
22/09:30pm 28.5 33.1 26.5 89 1.4 SW 15 20 8 11 1010.4 - 0.0
22/09:00pm 28.6 33.2 26.6 89 1.4 SW 15 20 8 11 1010.1 1010.0 0.0
22/08:30pm 28.5 33.1 26.5 89 1.4 WSW 15 20 8 11 1009.8 - 0.0
22/08:00pm 28.7 33.3 26.5 88 1.6 WSW 15 20 8 11 1009.7 - 0.0
22/07:30pm 28.8 33.2 26.2 86 1.8 WSW 15 20 8 11 1009.4 - 0.0
22/07:00pm 29.3 33.2 26.1 83 2.3 WSW 17 22 9 12 1009.0 - 0.0
22/06:30pm 30.2 34.6 26.8 82 2.4 WSW 17 22 9 12 1008.8 - 0.0
22/06:00pm 30.8 35.5 26.7 79 2.9 WSW 15 20 8 11 1008.7 1008.6 0.0
22/05:30pm 31.1 35.7 26.6 77 3.2 WSW 15 20 8 11 1008.4 - 0.0
22/05:00pm 31.4 36.1 26.7 76 3.4 WSW 15 20 8 11 1008.5 - 0.0
22/04:30pm 32.0 37.1 27.2 76 3.5 WSW 15 22 8 12 1008.6 - 0.0
22/04:00pm 32.0 36.9 27.5 77 3.3 SW 17 24 9 13 1008.8 - 0.0
22/03:30pm 31.9 36.5 27.1 76 3.5 SW 17 22 9 12 1008.9 - 0.0
22/03:00pm 32.0 36.7 27.2 76 3.5 WSW 17 22 9 12 1008.9 1008.8 0.0
22/02:30pm 32.2 37.1 27.0 74 3.8 SW 15 22 8 12 1009.1 - 0.0
22/02:00pm 32.6 38.2 28.0 77 3.4 WSW 15 22 8 12 1009.6 - 0.0
22/01:30pm 32.3 37.8 27.3 75 3.6 WSW 13 20 7 11 1010.0 - 0.0
22/01:00pm 32.5 37.8 27.5 75 3.6 WSW 15 20 8 11 1010.4 - 0.0
22/12:30pm 32.2 37.8 27.4 76 3.5 WSW 13 20 7 11 1010.9 - 0.0
22/12:00pm 32.2 37.4 27.4 76 3.5 SW 15 20 8 11 1011.2 1011.1 0.0
22/11:30am 31.8 37.1 27.0 76 3.5 WSW 13 19 7 10 1011.5 - 0.0
22/11:00am 31.7 36.8 26.7 75 3.6 WSW 13 19 7 10 1011.7 - 0.0
22/10:30am 31.6 37.5 27.3 78 3.1 WSW 11 15 6 8 1011.8 - 0.0
22/10:00am 31.0 36.6 26.9 79 3.0 W 11 13 6 7 1011.8 - 0.0
22/09:30am 30.3 35.9 26.9 82 2.4 W 11 13 6 7 1011.6 - 0.0
22/09:00am 30.2 35.9 27.0 83 2.3 W 11 13 6 7 1011.7 1011.6 0.0
22/08:30am 29.6 35.6 27.4 88 1.6 W 11 15 6 8 1011.6 - 0.0
22/08:00am 28.5 34.8 27.3 93 0.9 W 9 13 5 7 1011.2 - 0.0
22/07:30am 27.4 33.4 27.4 100 0.0 W 11 15 6 8 1011.0 - 0.0
22/07:00am 26.8 32.0 26.8 100 0.0 W 13 15 7 8 1010.7 - 0.0
22/06:30am 26.7 32.0 26.5 99 0.1 W 11 13 6 7 1010.5 - 0.0
22/06:00am 27.1 32.6 26.8 98 0.2 W 11 15 6 8 1010.3 1010.2 0.0
22/05:30am 27.4 32.6 26.9 97 0.4 W 13 17 7 9 1010.0 - 0.0
22/05:00am 27.5 32.4 27.0 97 0.4 W 15 17 8 9 1009.8 - 0.0
22/04:30am 27.6 33.1 27.3 98 0.2 W 13 17 7 9 1009.4 - 0.0
22/04:00am 27.6 32.7 27.3 98 0.2 W 15 19 8 10 1009.2 - 0.0
22/03:30am 27.3 32.7 27.1 99 0.1 W 13 17 7 9 1009.2 - 0.0
22/03:00am 26.8 32.3 26.8 100 0.0 W 11 17 6 9 1009.2 1009.1 0.0
22/02:30am 26.6 31.9 26.4 99 0.1 WSW 11 15 6 8 1009.2 - 0.0
22/02:00am 26.9 32.8 26.7 99 0.1 WSW 9 15 5 8 1009.4 - 0.0
22/01:30am 27.0 32.7 27.0 100 0.0 WSW 11 15 6 8 1009.6 - 0.0
22/01:00am 26.4 31.7 26.4 100 0.0 SW 11 15 6 8 1009.8 - 0.0
22/12:30am 26.2 31.6 26.0 99 0.1 SSW 9 15 5 8 1009.9 - 0.0
22/12:00am 27.0 32.9 26.7 98 0.2 SW 9 15 5 8 1010.3 1010.2 0.0
 
Date/Time
CST
Temp
°C
App
Temp
°C
Dew
Point
°C
Rel
Hum
%
Delta-T
°C
Wind Press
QNH
hPa
Press
MSL
hPa
Rain since
9am
mm
Dir  Spd
km/h
Gust
km/h
Spd
kts
Gust
kts
21/11:30pm 27.2 32.7 26.7 97 0.4 SW 11 19 6 10 1010.6 - 0.0
21/11:00pm 27.5 32.6 26.1 92 1.0 SW 11 17 6 9 1010.7 - 0.0
21/10:30pm 28.0 33.3 26.4 91 1.1 SW 11 19 6 10 1010.8 - 0.0
21/10:00pm 28.1 33.2 26.7 92 1.0 WSW 13 17 7 9 1010.5 - 0.0
21/09:30pm 28.1 32.8 26.1 89 1.4 WSW 13 17 7 9 1010.2 - 0.0
21/09:00pm 28.1 33.7 26.9 93 0.9 WSW 11 17 6 9 1010.0 1009.9 0.0
21/08:30pm 28.0 33.3 26.4 91 1.1 WSW 11 15 6 8 1009.9 - 0.0
21/08:00pm 28.2 33.2 26.0 88 1.6 SW 11 15 6 8 1009.5 - 0.0
21/07:30pm 28.5 33.4 25.9 86 1.8 SW 11 13 6 7 1009.2 - 0.0
21/07:00pm 29.4 34.5 26.2 83 2.3 SW 11 17 6 9 1009.0 - 0.0
21/06:30pm 30.4 35.1 26.1 78 3.1 SW 13 19 7 10 1008.9 - 0.0
21/06:00pm 31.2 36.3 26.7 77 3.2 WSW 13 20 7 11 1008.8 1008.7 0.0
21/05:30pm 31.5 35.9 26.3 74 3.7 SW 15 20 8 11 1008.6 - 0.0
21/05:00pm 31.6 36.1 26.4 74 3.7 SW 15 22 8 12 1008.5 - 0.0
21/04:30pm 32.0 36.6 26.5 72 4.0 SW 15 20 8 11 1008.6 - 0.0
21/04:00pm 32.2 37.1 27.0 74 3.8 SW 15 20 8 11 1008.7 - 0.0
21/03:30pm 32.3 37.3 27.1 74 3.8 SW 15 20 8 11 1008.9 - 0.0
21/03:00pm 32.1 37.1 27.1 75 3.6 WSW 15 24 8 13 1009.0 1008.9 0.0
21/02:30pm 32.3 37.6 27.5 76 3.5 WSW 15 20 8 11 1009.4 - 0.0
21/02:00pm 32.3 37.6 27.5 76 3.5 SW 15 26 8 14 1009.6 - 0.0
21/01:30pm 32.4 37.9 28.3 79 3.0 WSW 17 20 9 11 1010.2 - 0.0
21/01:00pm 32.3 38.2 28.4 80 2.9 SW 15 20 8 11 1010.7 - 0.0
21/12:30pm 31.2 36.9 27.5 81 2.7 WSW 13 19 7 10 1011.2 - 0.0
21/12:00pm 31.8 37.2 27.7 79 3.0 SW 15 20 8 11 1011.4 1011.3 0.0
21/11:30am 31.5 37.6 27.6 80 2.8 WSW 11 17 6 9 1011.7 - 0.0
21/11:00am 30.5 36.2 27.1 82 2.5 SW 11 17 6 9 1012.1 - 0.0
21/10:30am 30.6 36.6 27.4 83 2.3 WSW 11 15 6 8 1012.3 - 0.0
21/10:00am 31.0 37.8 28.0 84 2.2 WSW 9 17 5 9 1012.3 - 0.0
21/09:30am 30.6 37.3 28.4 88 1.6 W 11 15 6 8 1012.3 - 0.0
21/09:00am 29.1 34.5 27.7 92 1.0 W 15 17 8 9 1012.2 1012.1 0.2
21/08:30am 28.9 35.3 28.0 95 0.7 W 11 17 6 9 1011.9 - 0.2
21/08:00am 28.3 34.3 28.0 98 0.2 W 13 17 7 9 1011.4 - 0.2
21/07:30am 27.7 33.9 27.7 100 0.0 WSW 11 15 6 8 1010.8 - 0.2
21/07:00am 26.6 32.4 26.6 100 0.0 WSW 9 13 5 7 1010.2 - 0.2
21/06:30am 26.3 31.9 26.3 100 0.0 WSW 9 13 5 7 1009.8 - 0.2
21/06:00am 26.5 32.2 26.5 100 0.0 WSW 9 13 5 7 1009.3 1009.2 0.2
21/05:30am 26.0 31.8 26.0 100 0.0 SW 7 13 4 7 1008.9 - 0.2
21/05:00am 26.1 31.6 26.1 100 0.0 SW 9 13 5 7 1008.5 - 0.2
21/04:30am 26.8 32.7 26.8 100 0.0 WSW 9 13 5 7 1008.3 - 0.2
21/04:00am 27.4 33.7 27.4 100 0.0 WSW 9 15 5 8 1008.2 - 0.2
21/03:30am 27.7 33.9 27.7 100 0.0 SW 11 17 6 9 1008.2 - 0.2
21/03:00am 27.8 33.9 27.6 99 0.1 WSW 11 17 6 9 1008.6 1008.5 0.2
21/02:30am 28.1 34.2 28.1 100 0.0 SW 13 19 7 10 1008.7 - 0.2
21/02:00am 28.0 34.0 28.0 100 0.0 WSW 13 19 7 10 1009.0 - 0.2
21/01:30am 28.2 34.7 28.2 100 0.0 WSW 11 17 6 9 1009.0 - 0.2
21/01:00am 28.2 34.7 28.2 100 0.0 WSW 11 15 6 8 1009.4 - 0.2
21/12:30am 28.2 34.4 28.2 100 0.0 WSW 13 17 7 9 1009.5 - 0.2
21/12:00am 28.1 33.5 27.2 95 0.6 WSW 13 17 7 9 1009.6 1009.5 0.2
 
Date/Time
CST
Temp
°C
App
Temp
°C
Dew
Point
°C
Rel
Hum
%
Delta-T
°C
Wind Press
QNH
hPa
Press
MSL
hPa
Rain since
9am
mm
Dir  Spd
km/h
Gust
km/h
Spd
kts
Gust
kts
20/11:30pm 28.2 34.1 27.9 98 0.2 WSW 13 19 7 10 1009.9 - 0.2
20/11:00pm 28.1 34.3 27.8 98 0.2 WSW 11 15 6 8 1010.0 - 0.2
20/10:30pm 28.2 34.7 28.2 100 0.0 WSW 11 15 6 8 1009.8 - 0.2
20/10:00pm 28.3 34.9 28.3 100 0.0 WSW 11 17 6 9 1009.6 - 0.2
20/09:30pm 28.4 35.1 28.4 100 0.0 WSW 11 17 6 9 1009.5 - 0.2
20/09:00pm 28.5 35.0 28.2 98 0.2 SW 11 17 6 9 1009.3 1009.2 0.2
20/08:30pm 28.6 34.5 27.9 96 0.5 SW 13 17 7 9 1009.0 - 0.2
20/08:00pm 28.7 34.4 27.5 93 0.9 SW 13 19 7 10 1008.6 - 0.2
20/07:30pm 28.9 34.8 27.3 91 1.2 WSW 11 15 6 8 1008.4 - 0.2

Other Formats:

Comma delimited format used in spreadsheet applications
http://www.bom.gov.au/fwo/IDD60801/IDD60801.94122.axf

JavaScript Object Notation format (JSON) in row-major order
http://www.bom.gov.au/fwo/IDD60801/IDD60801.94122.json